createdAt,value
2023-06-03T00:00:51.504Z,2.80
2023-06-03T00:03:40.387Z,2.80
2023-06-03T00:06:28.016Z,3.25
2023-06-03T00:09:15.857Z,2.42
2023-06-03T00:12:03.239Z,2.50
2023-06-03T00:14:51.066Z,3.15
2023-06-03T00:17:38.992Z,2.47
2023-06-03T00:20:26.571Z,2.90
2023-06-03T00:23:13.914Z,2.72
2023-06-03T00:26:01.209Z,2.55
2023-06-03T00:28:49.257Z,2.80
2023-06-03T00:31:36.697Z,2.77
2023-06-03T00:34:24.054Z,2.98
2023-06-03T00:37:11.506Z,2.85
2023-06-03T00:39:59.102Z,2.95
2023-06-03T00:42:46.558Z,3.40
2023-06-03T00:45:33.852Z,2.65
2023-06-03T00:48:21.571Z,2.45
2023-06-03T00:51:09.490Z,2.42
2023-06-03T00:53:56.985Z,2.87
2023-06-03T00:56:46.449Z,2.65
2023-06-03T00:59:33.991Z,2.90
2023-06-03T01:02:21.736Z,3.10
2023-06-03T01:05:09.554Z,3.30
2023-06-03T01:08:14.204Z,3.22
2023-06-03T01:11:19.853Z,3.08
2023-06-03T01:14:16.112Z,3.15
2023-06-03T01:17:08.347Z,3.00
2023-06-03T01:19:57.680Z,2.92
2023-06-03T01:22:47.299Z,3.80
2023-06-03T01:25:36.225Z,3.02
2023-06-03T01:28:24.636Z,3.22
2023-06-03T01:31:11.957Z,3.25
2023-06-03T01:33:59.380Z,3.52
2023-06-03T01:36:47.101Z,3.70
2023-06-03T01:39:35.312Z,3.50
2023-06-03T01:42:22.679Z,3.12
2023-06-03T01:45:10.621Z,3.50
2023-06-03T01:47:58.475Z,3.10
2023-06-03T01:50:46.626Z,3.27
2023-06-03T01:53:53.246Z,3.15
2023-06-03T01:56:40.654Z,3.30
2023-06-03T01:59:28.246Z,3.08
2023-06-03T02:02:15.919Z,3.30
2023-06-03T02:05:04.348Z,3.50
2023-06-03T02:07:51.700Z,3.42
2023-06-03T02:10:39.430Z,3.22
2023-06-03T02:13:26.948Z,3.10
2023-06-03T02:16:14.952Z,2.92
2023-06-03T02:19:04.046Z,3.27
2023-06-03T02:21:52.061Z,3.08
2023-06-03T02:24:39.542Z,3.17
2023-06-03T02:27:28.966Z,3.10
2023-06-03T02:30:16.401Z,3.87
2023-06-03T02:33:03.941Z,3.10
2023-06-03T02:35:50.959Z,3.37
2023-06-03T02:38:38.262Z,3.15
2023-06-03T02:41:26.256Z,2.90
2023-06-03T02:44:15.068Z,3.00
2023-06-03T02:47:02.585Z,2.90
2023-06-03T02:49:50.710Z,3.20
2023-06-03T02:52:38.387Z,2.75
2023-06-03T02:55:27.846Z,3.02
2023-06-03T02:58:16.738Z,2.90
2023-06-03T03:01:04.863Z,3.00
2023-06-03T03:03:52.523Z,2.70
2023-06-03T03:06:41.853Z,2.62
2023-06-03T03:09:29.728Z,2.92
2023-06-03T03:12:17.245Z,2.65
2023-06-03T03:15:05.111Z,2.80
2023-06-03T03:17:52.425Z,3.25
2023-06-03T03:20:40.140Z,2.70
2023-06-03T03:23:34.925Z,2.75
2023-06-03T03:26:23.508Z,2.70
2023-06-03T03:29:10.947Z,2.45
2023-06-03T03:32:01.724Z,2.80
2023-06-03T03:34:55.855Z,3.00
2023-06-03T03:37:44.386Z,2.40
2023-06-03T03:40:33.433Z,2.58
2023-06-03T03:43:21.497Z,2.50
2023-06-03T03:46:12.121Z,2.70
2023-06-03T03:49:00.183Z,2.30
2023-06-03T03:51:48.252Z,2.67
2023-06-03T03:54:36.668Z,2.83
2023-06-03T03:57:25.918Z,2.70
2023-06-03T04:00:14.668Z,2.25
2023-06-03T04:03:02.200Z,2.33
2023-06-03T04:05:50.720Z,2.47
2023-06-03T04:08:44.838Z,2.40
2023-06-03T04:11:34.675Z,2.30
2023-06-03T04:14:26.720Z,2.08
2023-06-03T04:17:15.429Z,2.30
2023-06-03T04:20:02.788Z,2.27
2023-06-03T04:22:52.880Z,2.37
2023-06-03T04:25:42.076Z,2.42
2023-06-03T04:28:29.177Z,2.25
2023-06-03T04:31:16.679Z,2.60
2023-06-03T04:34:04.856Z,2.10
2023-06-03T04:36:52.769Z,1.80
2023-06-03T04:39:40.610Z,2.60
2023-06-03T04:42:30.045Z,1.75
2023-06-03T04:45:17.201Z,1.77
2023-06-03T04:48:06.403Z,2.20
2023-06-03T04:50:53.877Z,2.12
2023-06-03T04:53:42.487Z,1.98
2023-06-03T04:56:33.201Z,2.08
2023-06-03T04:59:20.778Z,1.82
2023-06-03T05:02:09.827Z,1.80
2023-06-03T05:04:57.577Z,2.25
2023-06-03T05:07:45.436Z,1.95
2023-06-03T05:10:32.737Z,1.77
2023-06-03T05:13:21.345Z,1.72
2023-06-03T05:16:08.822Z,1.50
2023-06-03T05:18:56.746Z,2.00
2023-06-03T05:21:44.360Z,1.50
2023-06-03T05:24:32.084Z,1.90
2023-06-03T05:27:19.228Z,1.55
2023-06-03T05:30:07.259Z,1.52
2023-06-03T05:32:54.961Z,1.80
2023-06-03T05:35:42.482Z,1.70
2023-06-03T05:38:31.902Z,1.70
2023-06-03T05:41:19.778Z,1.90
2023-06-03T05:44:26.786Z,1.50
2023-06-03T05:47:14.248Z,1.40
2023-06-03T05:50:01.789Z,2.33
2023-06-03T05:52:49.283Z,1.77
2023-06-03T05:55:36.850Z,1.70
2023-06-03T05:58:24.507Z,1.45
2023-06-03T06:01:12.015Z,1.50
2023-06-03T06:03:59.806Z,1.30
2023-06-03T06:06:47.584Z,1.40
2023-06-03T06:09:36.553Z,1.37
2023-06-03T06:12:24.661Z,1.52
2023-06-03T06:15:12.398Z,1.30
2023-06-03T06:17:59.856Z,1.60
2023-06-03T06:20:50.363Z,2.22
2023-06-03T06:23:38.249Z,1.47
2023-06-03T06:26:26.637Z,1.60
2023-06-03T06:29:14.331Z,1.42
2023-06-03T06:32:02.420Z,1.45
2023-06-03T06:35:09.227Z,1.72
2023-06-03T06:37:59.003Z,1.52
2023-06-03T06:40:46.907Z,1.45
2023-06-03T06:43:36.561Z,1.52
2023-06-03T06:46:25.907Z,1.62
2023-06-03T06:49:13.811Z,1.30
2023-06-03T06:52:02.051Z,1.65
2023-06-03T06:54:49.813Z,1.70
2023-06-03T06:57:37.164Z,1.75
2023-06-03T07:00:24.830Z,1.50
2023-06-03T07:03:13.949Z,1.70
2023-06-03T07:06:01.426Z,1.60
2023-06-03T07:08:49.321Z,1.62
2023-06-03T07:11:42.887Z,1.95
2023-06-03T07:14:33.436Z,1.55
2023-06-03T07:17:20.827Z,1.77
2023-06-03T07:20:08.891Z,1.60
2023-06-03T07:22:56.623Z,1.60
2023-06-03T07:25:46.519Z,1.60
2023-06-03T07:28:36.153Z,1.85
2023-06-03T07:31:23.815Z,1.72
2023-06-03T07:34:11.307Z,1.60
2023-06-03T07:37:01.971Z,1.70
2023-06-03T07:39:49.758Z,1.70
2023-06-03T07:42:39.849Z,1.55
2023-06-03T07:45:28.390Z,1.80
2023-06-03T07:48:17.006Z,2.17
2023-06-03T07:51:05.259Z,1.62
2023-06-03T07:53:55.944Z,2.02
2023-06-03T07:56:44.075Z,1.62
2023-06-03T07:59:31.698Z,1.90
2023-06-03T08:02:19.101Z,2.10
2023-06-03T08:05:07.065Z,1.77
2023-06-03T08:07:54.464Z,1.87
2023-06-03T08:10:41.863Z,2.25
2023-06-03T08:13:29.885Z,1.87
2023-06-03T08:16:21.245Z,1.90
2023-06-03T08:19:11.464Z,2.00
2023-06-03T08:21:59.384Z,2.10
2023-06-03T08:24:46.761Z,1.75
2023-06-03T08:27:34.510Z,2.17
2023-06-03T08:30:23.403Z,2.20
2023-06-03T08:33:11.376Z,2.22
2023-06-03T08:35:59.225Z,2.15
2023-06-03T08:38:46.918Z,2.15
2023-06-03T08:41:43.484Z,2.20
2023-06-03T08:44:42.974Z,2.25
2023-06-03T08:47:36.318Z,2.00
2023-06-03T08:50:27.658Z,2.10
2023-06-03T08:53:15.799Z,1.75
2023-06-03T08:56:04.184Z,2.35
2023-06-03T08:59:02.984Z,1.90
2023-06-03T09:01:53.798Z,2.20
2023-06-03T09:04:42.051Z,2.22
2023-06-03T09:07:31.615Z,2.20
2023-06-03T09:10:40.079Z,2.22
2023-06-03T09:13:32.362Z,2.30
2023-06-03T09:16:21.375Z,2.47
2023-06-03T09:19:08.844Z,2.30
2023-06-03T09:22:00.156Z,1.95
2023-06-03T09:24:48.831Z,2.47
2023-06-03T09:27:37.549Z,2.20
2023-06-03T09:30:25.020Z,2.00
2023-06-03T09:33:12.452Z,2.42
2023-06-03T09:36:16.275Z,2.83
2023-06-03T09:39:03.328Z,2.65
2023-06-03T09:41:52.381Z,2.60
2023-06-03T09:44:41.830Z,3.15
2023-06-03T09:47:32.321Z,2.37
2023-06-03T09:50:19.649Z,2.52
2023-06-03T09:53:09.760Z,2.35
2023-06-03T09:55:56.878Z,2.15
2023-06-03T09:58:44.763Z,2.60
2023-06-03T10:01:32.918Z,2.52
2023-06-03T10:04:26.106Z,2.65
2023-06-03T10:07:18.643Z,3.45
2023-06-03T10:10:09.173Z,2.42
2023-06-03T10:12:58.444Z,2.40
2023-06-03T10:15:46.055Z,2.70
2023-06-03T10:18:38.558Z,2.42
2023-06-03T10:21:26.815Z,2.58
2023-06-03T10:24:16.116Z,3.10
2023-06-03T10:27:04.515Z,2.70
2023-06-03T10:29:57.720Z,2.87
2023-06-03T10:32:47.004Z,2.80
2023-06-03T10:35:35.472Z,2.58
2023-06-03T10:38:22.987Z,2.60
2023-06-03T10:41:12.779Z,2.35
2023-06-03T10:44:00.115Z,2.70
2023-06-03T10:46:51.022Z,2.67
2023-06-03T10:49:59.707Z,3.05
2023-06-03T10:52:56.321Z,3.02
2023-06-03T10:56:09.667Z,2.60
2023-06-03T10:59:08.344Z,2.62
2023-06-03T11:02:03.773Z,2.80
2023-06-03T11:04:54.543Z,2.85
2023-06-03T11:07:44.930Z,2.77
2023-06-03T11:10:40.904Z,2.95
2023-06-03T11:13:42.825Z,2.65
2023-06-03T11:16:30.314Z,2.70
2023-06-03T11:19:35.774Z,2.87
2023-06-03T11:22:38.728Z,3.00
2023-06-03T11:25:30.340Z,2.50
2023-06-03T11:28:35.148Z,2.75
2023-06-03T11:31:23.316Z,2.62
2023-06-03T11:34:27.379Z,2.37
2023-06-03T11:37:17.857Z,2.62
2023-06-03T11:40:10.148Z,2.67
2023-06-03T11:43:02.098Z,2.80
2023-06-03T11:45:49.694Z,2.45
2023-06-03T11:48:38.700Z,2.45
2023-06-03T11:51:30.362Z,2.50
2023-06-03T11:54:20.713Z,2.55
2023-06-03T11:57:09.539Z,2.37
2023-06-03T11:59:57.516Z,2.80
2023-06-03T12:02:48.374Z,2.20
2023-06-03T12:05:36.104Z,2.45
2023-06-03T12:08:24.000Z,2.45
2023-06-03T12:11:11.408Z,2.87
2023-06-03T12:13:58.961Z,3.12
2023-06-03T12:16:46.644Z,2.85
2023-06-03T12:19:34.157Z,2.12
2023-06-03T12:22:28.105Z,2.20
2023-06-03T12:25:24.125Z,2.25
2023-06-03T12:28:26.079Z,2.23
2023-06-03T12:31:14.660Z,2.27
2023-06-03T12:34:02.129Z,2.22
2023-06-03T12:36:51.178Z,2.15
2023-06-03T12:39:49.809Z,2.30
2023-06-03T12:42:45.828Z,2.80
2023-06-03T12:45:33.210Z,2.52
2023-06-03T12:48:34.243Z,2.10
2023-06-03T12:51:26.585Z,2.33
2023-06-03T12:54:14.181Z,2.20
2023-06-03T12:57:01.871Z,2.65
2023-06-03T13:00:20.732Z,2.30
2023-06-03T13:03:09.110Z,2.20
2023-06-03T13:05:56.707Z,2.40
2023-06-03T13:08:43.914Z,2.33
2023-06-03T13:11:31.815Z,2.15
2023-06-03T13:14:19.749Z,2.30
2023-06-03T13:17:07.649Z,2.22
2023-06-03T13:19:55.695Z,2.65
2023-06-03T13:22:44.000Z,2.42
2023-06-03T13:25:31.324Z,2.20
2023-06-03T13:28:19.234Z,2.30
2023-06-03T13:31:10.026Z,2.40
2023-06-03T13:33:57.731Z,2.35
2023-06-03T13:36:53.752Z,1.90
2023-06-03T13:39:41.603Z,2.40
2023-06-03T13:42:29.601Z,2.25
2023-06-03T13:45:17.230Z,2.22
2023-06-03T13:48:04.919Z,2.30
2023-06-03T13:50:53.523Z,2.20
2023-06-03T13:53:40.902Z,2.30
2023-06-03T13:56:28.429Z,2.02
2023-06-03T13:59:16.191Z,2.40
2023-06-03T14:02:03.922Z,2.50
2023-06-03T14:04:51.551Z,2.10
2023-06-03T14:07:38.665Z,2.30
2023-06-03T14:10:25.950Z,2.20
2023-06-03T14:13:13.508Z,1.98
2023-06-03T14:16:01.269Z,2.05
2023-06-03T14:18:49.115Z,2.08
2023-06-03T14:21:36.804Z,2.10
2023-06-03T14:24:24.383Z,2.37
2023-06-03T14:27:11.784Z,2.60
2023-06-03T14:29:59.135Z,2.02
2023-06-03T14:32:46.624Z,2.05
2023-06-03T14:35:34.232Z,2.00
2023-06-03T14:38:22.657Z,1.82
2023-06-03T14:41:10.817Z,2.00
2023-06-03T14:43:58.512Z,1.95
2023-06-03T14:46:45.794Z,2.20
2023-06-03T14:49:34.922Z,2.10
2023-06-03T14:52:22.701Z,2.22
2023-06-03T14:55:10.565Z,2.52
2023-06-03T14:57:57.903Z,2.17
2023-06-03T15:00:45.869Z,2.10
2023-06-03T15:03:33.413Z,1.98
2023-06-03T15:06:21.317Z,2.30
2023-06-03T15:09:08.683Z,2.20
2023-06-03T15:11:56.209Z,2.25
2023-06-03T15:14:44.249Z,1.95
2023-06-03T15:17:32.840Z,2.20
2023-06-03T15:20:20.912Z,1.90
2023-06-03T15:23:09.051Z,2.30
2023-06-03T15:25:56.725Z,2.10
2023-06-03T15:28:44.374Z,1.90
2023-06-03T15:31:31.980Z,2.15
2023-06-03T15:34:19.445Z,2.27
2023-06-03T15:37:07.087Z,2.27
2023-06-03T15:39:54.770Z,2.15
2023-06-03T15:42:42.419Z,2.00
2023-06-03T15:45:30.059Z,2.33
2023-06-03T15:48:17.372Z,2.12
2023-06-03T15:51:05.102Z,2.40
2023-06-03T15:53:52.242Z,2.17
2023-06-03T15:56:39.720Z,2.08
2023-06-03T15:59:27.394Z,1.98
2023-06-03T16:02:14.581Z,2.20
2023-06-03T16:05:02.501Z,2.15
2023-06-03T16:07:49.754Z,2.50
2023-06-03T16:10:38.415Z,1.87
2023-06-03T16:13:27.576Z,1.67
2023-06-03T16:16:15.049Z,2.05
2023-06-03T16:19:02.347Z,1.80
2023-06-03T16:21:50.776Z,2.00
2023-06-03T16:24:38.939Z,1.72
2023-06-03T16:27:26.687Z,1.98
2023-06-03T16:30:14.404Z,2.35
2023-06-03T16:33:02.231Z,3.10
2023-06-03T16:35:49.576Z,1.82
2023-06-03T16:38:38.524Z,1.98
2023-06-03T16:41:27.518Z,2.33
2023-06-03T16:44:14.837Z,1.75
2023-06-03T16:47:02.369Z,1.72
2023-06-03T16:49:49.963Z,1.55
2023-06-03T16:52:38.524Z,1.77
2023-06-03T16:55:25.968Z,1.80
2023-06-03T16:58:13.479Z,2.00
2023-06-03T17:01:01.479Z,1.60
2023-06-03T17:03:48.830Z,1.87
2023-06-03T17:06:36.142Z,1.90
2023-06-03T17:09:23.599Z,1.70
2023-06-03T17:12:11.309Z,1.60
2023-06-03T17:14:59.384Z,1.60
2023-06-03T17:17:47.096Z,1.85
2023-06-03T17:20:34.569Z,1.37
2023-06-03T17:23:23.964Z,1.65
2023-06-03T17:26:11.512Z,1.90
2023-06-03T17:29:00.598Z,1.77
2023-06-03T17:31:48.224Z,1.40
2023-06-03T17:34:36.274Z,1.65
2023-06-03T17:37:23.830Z,1.80
2023-06-03T17:40:12.135Z,1.77
2023-06-03T17:42:59.523Z,1.70
2023-06-03T17:45:47.034Z,1.50
2023-06-03T17:48:34.594Z,1.75
2023-06-03T17:51:22.627Z,1.47
2023-06-03T17:54:10.213Z,1.35
2023-06-03T17:56:57.444Z,1.60
2023-06-03T17:59:44.646Z,1.30
2023-06-03T18:02:34.012Z,1.57
2023-06-03T18:05:21.598Z,1.50
2023-06-03T18:08:08.841Z,1.35
2023-06-03T18:10:56.196Z,1.40
2023-06-03T18:13:43.536Z,1.37
2023-06-03T18:16:31.265Z,1.82
2023-06-03T18:19:18.675Z,1.52
2023-06-03T18:22:06.223Z,1.98
2023-06-03T18:24:53.955Z,1.45
2023-06-03T18:27:41.333Z,2.30
2023-06-03T18:30:29.924Z,1.55
2023-06-03T18:33:19.007Z,1.40
2023-06-03T18:36:07.022Z,1.50
2023-06-03T18:38:55.262Z,1.20
2023-06-03T18:41:43.221Z,1.22
2023-06-03T18:44:30.549Z,1.60
2023-06-03T18:47:17.862Z,1.35
2023-06-03T18:50:05.487Z,1.37
2023-06-03T18:52:52.899Z,1.30
2023-06-03T18:55:41.164Z,1.30
2023-06-03T18:58:28.788Z,1.37
2023-06-03T19:01:16.484Z,1.45
2023-06-03T19:04:04.615Z,1.42
2023-06-03T19:06:51.823Z,1.60
2023-06-03T19:09:39.423Z,1.30
2023-06-03T19:12:27.030Z,1.27
2023-06-03T19:15:14.801Z,1.15
2023-06-03T19:18:02.740Z,1.22
2023-06-03T19:20:50.789Z,1.40
2023-06-03T19:23:38.930Z,1.27
2023-06-03T19:26:26.015Z,1.37
2023-06-03T19:29:13.550Z,1.10
2023-06-03T19:32:02.102Z,1.30
2023-06-03T19:34:49.593Z,1.30
2023-06-03T19:37:37.341Z,1.30
2023-06-03T19:40:25.100Z,1.25
2023-06-03T19:43:12.107Z,1.27
2023-06-03T19:45:59.548Z,1.25
2023-06-03T19:48:47.693Z,1.20
2023-06-03T19:51:35.049Z,1.12
2023-06-03T19:54:22.428Z,1.10
2023-06-03T19:57:10.594Z,1.50
2023-06-03T19:59:59.377Z,1.17
2023-06-03T20:02:47.263Z,1.50
2023-06-03T20:05:37.626Z,1.42
2023-06-03T20:08:25.519Z,1.47
2023-06-03T20:11:12.794Z,1.30
2023-06-03T20:14:00.212Z,1.22
2023-06-03T20:16:47.592Z,1.20
2023-06-03T20:19:34.951Z,1.45
2023-06-03T20:22:23.094Z,1.20
2023-06-03T20:25:10.929Z,0.98
2023-06-03T20:28:00.505Z,1.50
2023-06-03T20:30:47.929Z,1.35
2023-06-03T20:33:36.610Z,1.60
2023-06-03T20:36:25.997Z,1.02
2023-06-03T20:39:13.486Z,1.67
2023-06-03T20:42:01.136Z,1.25
2023-06-03T20:44:48.542Z,1.45
2023-06-03T20:47:36.281Z,1.30
2023-06-03T20:50:24.058Z,1.30
2023-06-03T20:53:11.842Z,1.22
2023-06-03T20:55:59.131Z,1.35
2023-06-03T20:58:46.458Z,1.40
2023-06-03T21:01:34.207Z,1.00
2023-06-03T21:04:21.769Z,1.20
2023-06-03T21:07:09.470Z,1.25
2023-06-03T21:09:57.215Z,1.60
2023-06-03T21:12:44.610Z,1.30
2023-06-03T21:15:32.109Z,1.40
2023-06-03T21:18:19.646Z,1.32
2023-06-03T21:21:07.270Z,1.12
2023-06-03T21:23:55.087Z,1.37
2023-06-03T21:26:42.773Z,1.37
2023-06-03T21:29:30.744Z,1.37
2023-06-03T21:32:18.290Z,1.25
2023-06-03T21:35:05.916Z,1.22
2023-06-03T21:37:53.226Z,1.25
2023-06-03T21:40:41.361Z,1.47
2023-06-03T21:43:28.768Z,1.10
2023-06-03T21:46:16.301Z,1.12
2023-06-03T21:49:03.865Z,1.30
2023-06-03T21:51:51.208Z,1.12
2023-06-03T21:54:43.460Z,1.42
2023-06-03T21:57:31.936Z,1.40
2023-06-03T22:00:21.264Z,1.20
2023-06-03T22:03:08.802Z,1.35
2023-06-03T22:05:56.570Z,1.12
2023-06-03T22:08:43.896Z,1.02
2023-06-03T22:11:33.098Z,1.10
2023-06-03T22:14:20.710Z,1.12
2023-06-03T22:17:07.809Z,1.45
2023-06-03T22:19:55.249Z,1.07
2023-06-03T22:22:48.692Z,0.90
2023-06-03T22:25:33.948Z,1.82
2023-06-03T22:28:22.698Z,1.40
2023-06-03T22:31:10.497Z,1.10
2023-06-03T22:33:58.180Z,1.25
2023-06-03T22:36:45.750Z,1.40
2023-06-03T22:39:33.497Z,1.05
2023-06-03T22:42:21.303Z,0.82
2023-06-03T22:45:09.014Z,1.50
2023-06-03T22:47:56.769Z,1.27
2023-06-03T22:50:44.224Z,1.20
2023-06-03T22:53:31.535Z,1.30
2023-06-03T22:56:18.839Z,0.90
2023-06-03T22:59:06.523Z,1.12
2023-06-03T23:01:53.821Z,1.37
2023-06-03T23:04:41.535Z,1.02
2023-06-03T23:07:29.308Z,1.37
2023-06-03T23:10:16.717Z,1.50
2023-06-03T23:13:04.408Z,1.15
2023-06-03T23:15:52.054Z,1.10
2023-06-03T23:18:39.654Z,1.17
2023-06-03T23:21:28.808Z,1.12
2023-06-03T23:24:16.159Z,1.12
2023-06-03T23:27:03.640Z,0.98
2023-06-03T23:29:51.261Z,1.30
2023-06-03T23:32:39.145Z,0.80
2023-06-03T23:35:26.953Z,1.30
2023-06-03T23:38:14.568Z,1.05
2023-06-03T23:41:02.029Z,1.15
2023-06-03T23:43:49.407Z,1.17
2023-06-03T23:46:36.885Z,1.35
2023-06-03T23:49:24.345Z,1.35
2023-06-03T23:52:11.821Z,1.07
2023-06-03T23:54:59.180Z,0.90
2023-06-03T23:57:46.513Z,1.07
